Station: Redesdale  

  Atmospheric Gas Attenuation - ITU Rec 676-11   ----------------- dB/100km -----------------
Date Time Temp RH % AH g/m3 Dew Point Wind Direction Speed kph Gust kph Barometer mB Rainfall Since 9am 24GHz 47GHz 76GHz 122GHz 134GHz 241GHz
08/05 12:30 17.4 58 8.6 9.1 20 32 1013.1 0 19.4 24.9 38.0 99.8 94.0 323.4
08/05 12:20 17.8 62 9.41 10.4 20 26 1013.1 0 21.1 26.0 41.0 107.6 103.8 357.7
08/05 12:10 16.4 63 8.79 9.5 20 24 1013.1 0 19.9 25.4 39.3 103.0 97.6 336.0
08/05 12:00 16.5 66 9.27 10.1 15 24 1013.1 0 20.9 26.2 41.1 107.9 103.7 357.3
08/05 11:50 16.6 65 9.18 10 19 24 1013.1 0 20.7 26.0 40.7 106.8 102.4 352.7
08/05 11:40 15.9 68 9.21 10 22 33 1013.1 0 20.8 26.3 41.2 108.1 103.7 357.3
08/05 11:30 15.5 70 9.25 10.1 17 33 1013.1 0 20.9 26.4 41.5 109.1 104.7 360.9
08/05 11:20 16.1 66 9.05 9.9 17 20 1013.1 0 20.4 25.9 40.4 106.1 101.3 349.1
08/05 11:10 15.7 68 9.1 9.8 15 24 1013.1 0 20.6 26.1 40.8 107.2 102.5 353.1
08/05 11:00 15.6 68 9.04 9.7 20 32 1013.1 0 20.4 26.1 40.6 106.7 101.9 350.8
08/05 10:50 14.5 68 8.46 8.8 24 30 1013.1 0 19.3 25.5 38.9 102.0 95.7 329.1
08/05 10:40 15.3 69 9.01 9.6 20 28 1013.1 0 20.4 26.1 40.7 106.8 101.9 350.8
08/05 10:30 14.9 71 9.05 9.7 20 32 1013.1 0 20.5 26.3 41.0 107.8 102.9 354.4
08/05 10:20 14.7 72 9.07 9.7 17 22 1013.1 0 20.5 26.4 41.2 108.3 103.4 356.2
08/05 10:10 14.6 73 9.14 9.8 17 24 1013.1 0 20.7 26.5 41.6 109.2 104.5 360.0
08/05 10:00 14.5 75 9.33 10.1 13 22 1013.1 0 21.1 26.9 42.4 111.4 107.2 369.3
08/05 09:50 14.7 75 9.44 10.3 13 19 1013.1 0 21.3 27.0 42.7 112.3 108.4 373.5
08/05 09:40 13.9 81 9.71 10.7 13 17 1013.1 0 22.0 27.7 44.3 116.4 113.2 390.3
08/05 09:30 14.1 79 9.59 10.5 11 19 1013.1 0 21.7 27.4 43.7 114.8 111.3 383.6
08/05 09:20 14.3 80 9.83 11 11 17 1013.1 0 22.2 27.8 44.6 117.2 114.3 394.0
08/05 09:10 13.5 82 9.59 10.5 9 15 1013.1 0 21.7 27.6 44.0 115.7 112.1 386.5
08/05 09:00 12.9 84 9.47 10.3 9 19 1013.1 0 21.5 27.6 43.8 115.2 111.4 383.7
08/05 08:50 12.8 84 9.41 10.1 11 19 1013.1 0 21.4 27.5 43.6 114.7 110.7 381.3
08/05 08:40 12.5 87 9.57 10.4 9 13 1013.1 0 21.7 27.9 44.5 117.0 113.3 390.6
08/05 08:30 12.2 87 9.39 10.1 7 15 1013.1 0 21.4 27.7 43.9 115.4 111.3 383.3
08/05 08:20 12 87 9.27 9.9 9 13 1013.1 0 21.1 27.5 43.5 114.3 109.9 378.5
08/05 08:10 11.9 87 9.22 9.8 11 15 1013.1 0 21.0 27.5 43.3 113.9 109.3 376.5
08/05 08:00 11.5 89 9.19 9.8 11 20 1013.1 0 21.0 27.6 43.4 114.1 109.5 377.0
08/05 07:50 11.4 87 8.93 9.4 11 15 1013.1 0 20.4 27.2 42.4 111.4 106.0 364.9
08/05 07:40 11.3 89 9.08 9.5 11 15 1013.1 0 20.7 27.4 43.1 113.2 108.2 372.6
08/05 07:30 11.2 88 8.92 9.3 13 28 1013.1 0 20.4 27.2 42.5 111.5 106.2 365.3
08/05 07:20 11.2 89 9.02 9.4 15 17 1013.1 0 20.6 27.4 42.9 112.7 107.6 370.2
08/05 07:10 10.8 89 8.8 9 9 15 1013.1 0 20.2 27.1 42.2 110.8 105.1 361.4
08/05 07:00 10.8 91 9 9.4 11 20 1013.1 0 20.6 27.5 43.0 113.0 107.8 371.1
08/05 06:50 10.7 91 8.94 9.3 11 15 1013.1 0 20.5 27.4 42.8 112.5 107.1 368.7
08/05 06:40 10.8 90 8.9 9.2 11 19 1013.1 0 20.4 27.3 42.6 111.9 106.4 366.2
08/05 06:30 10.9 90 8.95 9.3 9 17 1013.1 0 20.5 27.3 42.8 112.3 107.0 368.2
08/05 06:20 11 90 9.01 9.4 6 7 1013.1 0 20.6 27.4 43.0 112.8 107.7 370.6
08/05 06:10 10.9 90 8.95 9.3 7 9 1013.1 0 20.5 27.3 42.8 112.3 107.0 368.2
08/05 06:00 11 89 8.91 9.3 11 22 1013.1 0 20.4 27.2 42.5 111.7 106.3 365.8
08/05 05:50 11 88 8.81 9.1 6 13 1013.1 0 20.2 27.1 42.1 110.6 104.9 360.9
08/05 05:40 10.8 89 8.8 9 7 13 1013.1 0 20.2 27.1 42.2 110.8 105.1 361.4
08/05 05:30 10.7 89 8.74 9 11 19 1013.1 0 20.0 27.0 42.0 110.2 104.4 358.9
08/05 05:20 10.6 91 8.88 9.2 9 13 1013.1 0 20.3 27.3 42.6 111.9 106.4 366.2
08/05 05:10 10.5 93 9.02 9.4 7 9 1013.1 0 20.7 27.6 43.3 113.7 108.5 373.5
08/05 05:00 10.5 93 9.02 9.4 7 19 1013.1 0 20.7 27.6 43.3 113.7 108.5 373.5
08/05 04:50 10.4 93 8.97 9.3 6 7 1013.1 0 20.6 27.5 43.1 113.3 108.0 371.6
08/05 04:40 10.5 92 8.92 9.2 9 11 1013.1 0 20.4 27.4 42.8 112.5 107.1 368.6
08/05 04:30 10.6 92 8.98 9.4 11 20 1013.1 0 20.6 27.5 43.0 113.1 107.8 371.1
08/05 04:20 10.3 92 8.81 9 9 11 1013.1 0 20.2 27.3 42.5 111.6 105.9 364.2
08/05 04:10 10.2 93 8.85 9.1 9 15 1013.1 0 20.3 27.4 42.7 112.2 106.6 366.6
08/05 04:00 10.2 93 8.85 9.1 7 19 1013.1 0 20.3 27.4 42.7 112.2 106.6 366.6
08/05 03:50 10.3 92 8.81 9 6 7 1013.1 0 20.2 27.3 42.5 111.6 105.9 364.2
08/05 03:40 10.3 91 8.72 8.9 9 19 1013.1 0 20.0 27.1 42.1 110.6 104.6 359.8
08/05 03:30 10.2 91 8.66 8.8 9 19 1013.1 0 19.9 27.1 41.9 110.0 103.9 357.3
08/05 03:20 10.2 91 8.66 8.8 9 13 1013.1 0 19.9 27.1 41.9 110.0 103.9 357.3
08/05 03:10 10.1 91 8.61 8.7 7 11 1013.1 0 19.8 27.0 41.7 109.6 103.4 355.4
08/05 03:00 10 92 8.65 8.8 7 20 1013.1 0 19.9 27.1 42.0 110.2 104.1 357.8
08/05 02:50 9.9 93 8.69 8.8 11 13 1013.1 0 20.0 27.2 42.2 110.8 104.8 360.2
08/05 02:40 9.8 93 8.63 8.7 9 15 1013.1 0 19.9 27.1 42.0 110.3 104.0 357.7
08/05 02:30 9.8 93 8.63 8.7 9 24 1013.1 0 19.9 27.1 42.0 110.3 104.0 357.7
08/05 02:20 9.6 93 8.52 8.5 4 6 1013.1 0 19.6 27.0 41.6 109.3 102.8 353.3
08/05 02:10 9.5 93 8.47 8.5 11 17 1013.1 0 19.5 27.0 41.5 108.9 102.2 351.3
08/05 02:00 9.4 93 8.41 8.3 11 26 1013.1 0 19.4 26.9 41.3 108.3 101.5 348.8
08/05 01:50 9.3 93 8.36 8.2 17 22 1013.1 0 19.3 26.8 41.1 107.9 101.0 346.8
08/05 01:40 8.9 93 8.15 7.8 11 17 1013.1 0 18.9 26.6 40.4 106.1 98.5 338.3
08/05 01:30 9.1 94 8.34 8.2 13 20 1013.1 0 19.3 26.9 41.1 108.0 100.9 346.7
08/05 01:20 9 93 8.2 7.9 17 26 1013.1 0 19.0 26.6 40.6 106.5 99.1 340.3
08/05 01:10 9.1 92 8.17 7.8 11 20 1013.1 0 18.9 26.6 40.4 106.0 98.6 338.4
08/05 01:00 9.3 92 8.27 8.1 11 19 1013.1 0 19.1 26.7 40.7 106.9 99.7 342.4
08/05 00:50 9.3 92 8.27 8 13 20 1013.1 0 19.1 26.7 40.7 106.9 99.7 342.4
08/05 00:40 9 91 8.03 7.7 15 26 1013.1 0 18.6 26.4 39.9 104.6 96.8 332.1
08/05 00:30 8.9 92 8.06 7.7 17 32 1013.1 0 18.7 26.4 40.0 105.1 97.3 334.0
08/05 00:20 8.8 91 7.92 7.4 15 19 1013.1 0 18.4 26.2 39.5 103.6 95.5 327.6
08/05 00:10 8.7 90 7.79 7.1 13 19 1013.1 0 18.1 26.0 39.0 102.3 93.8 321.8
08/05 00:00 8.8 89 7.75 7.1 13 24 1013.1 0 18.0 25.9 38.8 101.7 93.2 319.4
07/05 23:50 9.1 88 7.81 7.2 11 24 1013.1 0 18.1 26.0 38.9 102.0 93.6 321.1
07/05 23:40 9.1 87 7.72 7 15 22 1013.1 0 17.9 25.8 38.5 101.0 92.4 316.8
07/05 23:30 9.3 87 7.82 7.3 11 24 1013.1 0 18.1 25.9 38.8 101.9 93.5 320.7
07/05 23:20 9.1 87 7.72 7 11 13 1013.1 0 17.9 25.8 38.5 101.0 92.4 316.8
07/05 23:10 9.2 87 7.77 7.1 9 17 1013.1 0 18.0 25.9 38.7 101.4 92.9 318.8
07/05 23:00 9.2 86 7.68 7 9 22 1013.1 0 17.8 25.7 38.3 100.4 91.7 314.5
07/05 22:50 9.3 85 7.64 6.9 11 13 1013.1 0 17.7 25.6 38.1 99.9 91.1 312.2
07/05 22:40 9.2 85 7.59 6.9 11 15 1013.1 0 17.6 25.6 37.9 99.5 90.5 310.2
07/05 22:30 9 86 7.58 6.8 9 17 1013.1 0 17.6 25.6 38.0 99.6 90.6 310.5
07/05 22:20 8.9 87 7.62 6.8 7 9 1013.1 0 17.7 25.7 38.2 100.2 91.3 312.8
07/05 22:10 8.8 88 7.66 6.9 6 7 1013.1 0 17.8 25.8 38.4 100.7 91.9 315.1
07/05 22:00 8.8 88 7.66 6.9 7 15 1013.1 0 17.8 25.8 38.4 100.7 91.9 315.1
07/05 21:50 8.8 87 7.58 6.7 7 11 1013.1 0 17.6 25.7 38.1 99.9 90.8 311.3
07/05 21:40 8.7 87 7.53 6.6 7 9 1013.1 0 17.5 25.6 37.9 99.4 90.3 309.3
07/05 21:30 8.8 85 7.4 6.4 9 22 1013.1 0 17.2 25.4 37.4 97.9 88.4 302.8
07/05 21:20 9 82 7.23 6.2 11 17 1013.1 0 16.9 25.0 36.6 95.8 85.9 294.0
07/05 21:10 9 82 7.23 6.1 13 17 1013.1 0 16.9 25.0 36.6 95.8 85.9 294.0
07/05 21:00 9.1 82 7.28 6.2 9 19 1013.1 0 17.0 25.1 36.7 96.2 86.4 296.0
07/05 20:50 9 82 7.23 6.1 6 7 1013.1 0 16.9 25.0 36.6 95.8 85.9 294.0
07/05 20:40 9 81 7.14 5.9 13 19 1013.1 0 16.7 24.9 36.2 94.8 84.7 289.8
07/05 20:30 9 81 7.14 5.9 9 19 1013.1 0 16.7 24.9 36.2 94.8 84.7 289.8
07/05 20:20 8.8 81 7.05 5.7 11 15 1013.1 0 16.5 24.8 35.9 94.1 83.7 286.3
07/05 20:10 8.7 81 7.01 5.6 7 11 1013.1 0 16.4 24.8 35.8 93.8 83.3 284.8
07/05 20:00 8.8 81 7.05 5.7 11 19 1013.1 0 16.5 24.8 35.9 94.1 83.7 286.3

Last Refresh: 08-May-2026 12:08:02

Bureau of Meteorology